Millington, TN (38053)

10:42 AM CDT on July 28, 2016 (GMT -0500)
Lucy | | Change Station

Elev 276 ft 35.31 °N, 89.93 °W | Updated 10 minutes ago

Overcast
Overcast
79.2 °F
Feels Like 84 °F
N
0.0
Wind Variable Wind from NW
Gusts 0.7 mph

Today
High -- | Low -- °F
--% Chance of Precip.
Yesterday
High -- | Low -- °F
Precip. -- in
Pressure 29.95 in
Visibility 10.0 miles
Clouds Scattered Clouds 1000 ft
Overcast 1600 ft
Heat Index 84 °F
Dew Point 79 °F
Humidity 99%
Rainfall 0.12 in
Snow Depth Not available.
6:05 AM 8:05 PM
Waning Crescent, 31% visible
METAR KNQA 281450Z 25006KT 10SM SCT010 OVC016 27/25 A2995
Pressure 29.95 in
Visibility 10.0 miles
Clouds Scattered Clouds 1000 ft
Overcast 1600 ft
Heat Index 84 °F
Dew Point 79 °F
Humidity 99%
Rainfall 0.12 in
Snow Depth Not available.
6:05 AM 8:05 PM
Waning Crescent, 31% visible
METAR KNQA 281450Z 25006KT 10SM SCT010 OVC016 27/25 A2995

10-Day Weather Forecast

Almanac

Astronomy

Jul. 28, 2016 Rise Set
Actual Time
Civil Twilight
Nautical Twilight
Astronomical Twilight
Moon
Length of Visible Light
Length of Day
Tomorrow will be .
, % of the Moon is Illuminated

Today's Extremes

State Highs State Lows

Community

WunderPhotos

Upload Photos

1,928,140 photos uploaded!

WunderBlog® & News

Nearby

Air Quality

  Air Quality AQ Index Pollutant
Not available.

Snow Depth

Station Depth Elevation

Earthquake Activity

City Distance Mag. Time & Date
Minimum magnitude displayed is 2.5.

Coastal Water Temperatures

Place Temperature

Stations

Nearby Weather Stations

Station Location Temp. Windchill Dew Point Humidity Wind Precip. Elev Updated Type
                   

Watches & Warnings

There are currently no watches in effect.